Time;durP1;ratioP1;P1;durP2;ratioP2;P2;SDS_P1;SDS_P2;PMS_P1;PMS_P2;Temp;Humidity;BMP_temperature;BMP_pressure;BME280_temperature;BME280_humidity;BME280_pressure;Samples;Min_cycle;Max_cycle;Signal;HPM_P1;HPM_P2
2023/04/04 00:00:37;;;;;;;10.20;2.88;;;;;;;-1.18;100.00;96109.44;5036805;28;20045;-74
2023/04/04 00:03:13;;;;;;;7.53;3.40;;;;;;;-1.19;100.00;96108.66;5030625;28;20045;-74
2023/04/04 00:05:39;;;;;;;7.93;3.13;;;;;;;-1.16;100.00;96107.50;5030338;28;20056;-74
2023/04/04 00:08:04;;;;;;;9.32;3.38;;;;;;;-1.13;100.00;96101.97;5030002;28;20057;-75
2023/04/04 00:10:30;;;;;;;7.18;3.05;;;;;;;-1.17;100.00;96100.72;5031234;28;20047;-74
2023/04/04 00:12:56;;;;;;;8.45;3.53;;;;;;;-1.08;100.00;96105.59;5031564;28;20042;-77
2023/04/04 00:15:21;;;;;;;7.15;3.22;;;;;;;-1.04;100.00;96100.84;5033697;28;20037;-74
2023/04/04 00:17:47;;;;;;;7.03;3.35;;;;;;;-1.16;100.00;96100.53;5032059;28;20046;-74
2023/04/04 00:20:13;;;;;;;6.88;3.10;;;;;;;-1.17;100.00;96100.72;5035242;28;20497;-75
2023/04/04 00:22:38;;;;;;;11.80;3.72;;;;;;;-1.15;100.00;96089.22;5032636;28;20103;-74
2023/04/04 00:25:04;;;;;;;8.35;3.65;;;;;;;-1.14;100.00;96095.19;5029216;28;20148;-74
2023/04/04 00:27:30;;;;;;;6.80;3.38;;;;;;;-1.19;100.00;96087.16;5034649;28;20037;-74
2023/04/04 00:29:56;;;;;;;5.82;3.22;;;;;;;-1.17;100.00;96080.84;5032942;28;20548;-74
2023/04/04 00:32:21;;;;;;;7.68;2.97;;;;;;;-1.17;100.00;96083.41;5041240;28;20041;-74
2023/04/04 00:34:55;;;;;;;7.95;2.92;;;;;;;-1.20;100.00;96085.59;5042270;28;20048;-75
2023/04/04 00:37:20;;;;;;;7.95;3.08;;;;;;;-1.22;100.00;96078.81;5041527;28;20131;-74
2023/04/04 00:39:46;;;;;;;10.90;3.00;;;;;;;-1.25;100.00;96084.34;5035311;28;20048;-75
2023/04/04 00:42:12;;;;;;;5.90;3.08;;;;;;;-1.19;100.00;96071.66;5038342;28;20049;-75
2023/04/04 00:44:37;;;;;;;10.57;3.33;;;;;;;-1.17;100.00;96069.72;5030828;28;20041;-75
2023/04/04 00:47:03;;;;;;;13.93;3.80;;;;;;;-1.25;100.00;96073.19;5043098;28;20412;-75
2023/04/04 00:49:29;;;;;;;10.18;3.17;;;;;;;-1.36;100.00;96066.72;5035581;28;20045;-75
2023/04/04 00:51:54;;;;;;;4.97;2.65;;;;;;;-1.42;100.00;96062.28;5034456;28;20041;-76
2023/04/04 00:54:20;;;;;;;8.57;2.88;;;;;;;-1.44;100.00;96064.22;5030783;28;20041;-75
2023/04/04 00:56:46;;;;;;;7.53;3.60;;;;;;;-1.45;100.00;96062.63;5032676;28;20052;-74
2023/04/04 00:59:13;;;;;;;8.68;3.17;;;;;;;-1.39;100.00;96061.91;5040417;28;20088;-74
2023/04/04 01:01:38;;;;;;;6.93;3.35;;;;;;;-1.47;100.00;96057.63;5044946;28;20672;-74
2023/04/04 01:04:04;;;;;;;6.57;3.25;;;;;;;-1.53;100.00;96065.31;5032825;28;20053;-74
2023/04/04 01:06:31;;;;;;;7.72;3.15;;;;;;;-1.58;100.00;96053.75;5038148;28;20049;-74
2023/04/04 01:08:57;;;;;;;7.72;3.42;;;;;;;-1.65;100.00;96052.88;5031678;28;20493;-74
2023/04/04 01:11:24;;;;;;;6.05;2.95;;;;;;;-1.70;100.00;96060.31;5041230;28;20041;-74
2023/04/04 01:13:51;;;;;;;9.25;2.92;;;;;;;-1.75;100.00;96053.13;5034155;28;20052;-74
2023/04/04 01:16:16;;;;;;;9.15;3.40;;;;;;;-1.70;100.00;96055.16;5041538;28;20040;-76
2023/04/04 01:18:44;;;;;;;6.93;3.10;;;;;;;-1.72;100.00;96051.97;5031748;28;20184;-76
2023/04/04 01:21:15;;;;;;;8.52;3.17;;;;;;;-1.77;100.00;96049.94;5031452;28;20033;-76
2023/04/04 01:24:00;;;;;;;7.72;3.70;;;;;;;-1.84;100.00;96040.47;5033404;28;20045;-76
2023/04/04 01:26:27;;;;;;;10.45;3.00;;;;;;;-1.89;100.00;96050.56;5032263;28;20045;-76
2023/04/04 01:28:57;;;;;;;7.05;3.45;;;;;;;-1.91;100.00;96043.00;5036782;28;20103;-76
2023/04/04 01:31:41;;;;;;;4.97;2.55;;;;;;;-1.93;100.00;96035.41;5030360;28;20040;-75
2023/04/04 01:34:23;;;;;;;11.73;3.40;;;;;;;-2.01;100.00;96037.28;5032787;28;20049;-75
2023/04/04 01:37:01;;;;;;;6.57;2.75;;;;;;;-2.01;100.00;96045.81;5034423;28;20041;-75
2023/04/04 01:39:34;;;;;;;11.10;3.45;;;;;;;-2.00;100.00;96039.66;5030456;28;20099;-75
2023/04/04 01:42:02;;;;;;;6.82;3.10;;;;;;;-2.05;100.00;96036.00;5030472;28;20049;-75
2023/04/04 01:44:27;;;;;;;10.45;3.10;;;;;;;-2.15;100.00;96037.09;5033955;28;20042;-75
2023/04/04 01:46:54;;;;;;;6.07;3.10;;;;;;;-2.14;100.00;96032.72;5034468;28;20042;-75
2023/04/04 01:49:23;;;;;;;6.28;3.38;;;;;;;-2.18;100.00;96031.50;5031093;28;20356;-75
2023/04/04 01:51:51;;;;;;;7.25;3.30;;;;;;;-2.30;100.00;96033.69;5029751;28;20041;-75
2023/04/04 01:54:21;;;;;;;10.02;3.15;;;;;;;-2.16;100.00;96024.38;5037659;28;20048;-75
2023/04/04 01:56:46;;;;;;;5.47;2.78;;;;;;;-2.26;100.00;96037.50;5030611;28;20069;-75
2023/04/04 01:59:12;;;;;;;4.70;2.55;;;;;;;-2.22;100.00;96030.25;5032928;28;20183;-75
2023/04/04 02:01:38;;;;;;;7.32;2.97;;;;;;;-2.16;100.00;96034.69;5033002;28;20036;-75
2023/04/04 02:04:04;;;;;;;7.45;2.78;;;;;;;-2.13;100.00;96029.16;5037289;28;20091;-75
2023/04/04 02:06:30;;;;;;;7.57;3.00;;;;;;;-2.09;100.00;96026.06;5029493;28;20099;-75
2023/04/04 02:08:55;;;;;;;6.35;3.05;;;;;;;-2.09;100.00;96025.28;5041169;28;20493;-75
2023/04/04 02:11:21;;;;;;;8.07;3.20;;;;;;;-2.03;100.00;96034.88;5039498;28;20471;-76
2023/04/04 02:13:48;;;;;;;5.93;3.00;;;;;;;-2.05;100.00;96031.69;5039387;28;20056;-75
2023/04/04 02:16:14;;;;;;;9.18;2.58;;;;;;;-2.01;100.00;96027.78;5034898;28;20041;-75
2023/04/04 02:18:40;;;;;;;8.40;3.03;;;;;;;-2.15;100.00;96031.94;5044635;28;20225;-75
2023/04/04 02:21:06;;;;;;;9.90;3.03;;;;;;;-2.20;100.00;96033.44;5042436;28;20669;-75
2023/04/04 02:23:32;;;;;;;10.05;3.38;;;;;;;-2.25;100.00;96033.19;5040992;28;20045;-75
2023/04/04 02:25:57;;;;;;;5.32;2.80;;;;;;;-2.23;100.00;96023.47;5029871;28;20512;-75
2023/04/04 02:28:23;;;;;;;6.75;2.85;;;;;;;-2.21;100.00;96022.31;5037710;28;20486;-75
2023/04/04 02:30:48;;;;;;;6.72;2.85;;;;;;;-2.25;100.00;96025.44;5046166;28;20041;-75
2023/04/04 02:33:14;;;;;;;6.93;3.05;;;;;;;-2.29;100.00;96015.47;5036115;28;20056;-75
2023/04/04 02:35:40;;;;;;;5.55;2.97;;;;;;;-2.36;100.00;96017.13;5034437;28;20052;-75
2023/04/04 02:38:05;;;;;;;7.35;3.40;;;;;;;-2.31;100.00;96012.25;5030650;28;20048;-75
2023/04/04 02:40:31;;;;;;;8.88;2.90;;;;;;;-2.47;100.00;96020.13;5030575;28;20041;-75
2023/04/04 02:42:56;;;;;;;7.30;2.83;;;;;;;-2.36;100.00;96013.75;5035779;28;20099;-75
2023/04/04 02:45:22;;;;;;;7.03;3.00;;;;;;;-2.31;100.00;96016.63;5049289;28;20099;-75
2023/04/04 02:47:51;;;;;;;6.10;2.75;;;;;;;-2.34;100.00;96022.94;5042990;28;20040;-75
2023/04/04 02:50:16;;;;;;;6.95;3.10;;;;;;;-2.31;100.00;96012.25;5034764;28;20088;-75
2023/04/04 02:52:42;;;;;;;9.73;3.25;;;;;;;-2.33;100.00;96024.53;5032672;28;20037;-75
2023/04/04 02:55:08;;;;;;;6.20;2.92;;;;;;;-2.45;100.00;96016.41;5038779;28;20084;-75
2023/04/04 02:57:34;;;;;;;8.43;3.30;;;;;;;-2.39;100.00;96014.91;5063640;28;20029;-75
2023/04/04 03:00:00;;;;;;;6.85;2.97;;;;;;;-2.52;100.00;96014.72;5056487;28;20081;-75
2023/04/04 03:02:25;;;;;;;10.20;3.00;;;;;;;-2.46;100.00;96008.84;5058932;28;20036;-75
2023/04/04 03:04:51;;;;;;;8.43;3.08;;;;;;;-2.47;100.00;96007.25;5058930;28;20081;-75
2023/04/04 03:07:17;;;;;;;5.20;2.90;;;;;;;-2.55;100.00;96005.56;5058723;28;20044;-74
2023/04/04 03:09:45;;;;;;;8.70;3.00;;;;;;;-2.52;100.00;96010.34;5056327;28;20093;-75
2023/04/04 03:12:11;;;;;;;5.82;3.03;;;;;;;-2.62;100.00;96010.59;5068442;28;20032;-75
2023/04/04 03:14:37;;;;;;;5.07;2.80;;;;;;;-2.52;100.00;96004.41;5065126;28;20063;-75
2023/04/04 03:17:03;;;;;;;6.75;3.05;;;;;;;-2.44;100.00;96004.34;5055964;28;20034;-74
2023/04/04 03:19:29;;;;;;;9.43;3.47;;;;;;;-2.41;100.00;96011.72;5075314;28;20021;-75
2023/04/04 03:21:55;;;;;;;6.32;3.05;;;;;;;-2.55;100.00;96012.50;5044240;28;20076;-75
2023/04/04 03:24:21;;;;;;;8.13;3.33;;;;;;;-2.65;100.00;96002.41;5039037;28;20119;-75
2023/04/04 03:26:47;;;;;;;10.25;3.05;;;;;;;-2.69;100.00;96014.84;5036180;28;20052;-76
2023/04/04 03:29:12;;;;;;;8.50;3.00;;;;;;;-2.62;100.00;96002.84;5031177;28;20571;-76
2023/04/04 03:31:38;;;;;;;7.07;3.13;;;;;;;-2.74;100.00;96011.19;5030826;28;20041;-76
2023/04/04 03:34:04;;;;;;;6.40;2.75;;;;;;;-2.70;100.00;96007.28;5031010;28;20412;-76
2023/04/04 03:36:30;;;;;;;7.05;3.47;;;;;;;-2.69;100.00;96004.53;5028598;28;20045;-76
2023/04/04 03:38:56;;;;;;;8.48;3.17;;;;;;;-2.72;100.00;95999.72;5030248;28;20042;-76
2023/04/04 03:41:21;;;;;;;8.98;3.67;;;;;;;-2.73;100.00;96013.59;5043571;28;20041;-76
2023/04/04 03:43:47;;;;;;;6.68;3.33;;;;;;;-2.80;100.00;96012.69;5034164;28;20419;-76
2023/04/04 03:46:13;;;;;;;8.85;3.10;;;;;;;-2.86;100.00;96011.59;5029627;28;20045;-76
2023/04/04 03:48:39;;;;;;;7.45;3.15;;;;;;;-2.74;100.00;96018.91;5029320;28;20064;-76
2023/04/04 03:51:05;;;;;;;16.67;3.30;;;;;;;-2.76;100.00;96023.44;5045819;28;20128;-76
2023/04/04 03:53:30;;;;;;;9.43;3.25;;;;;;;-2.92;100.00;96019.22;5038656;28;20095;-76
2023/04/04 03:55:56;;;;;;;6.28;2.80;;;;;;;-2.90;100.00;96017.25;5032874;28;20048;-76
2023/04/04 03:58:22;;;;;;;8.18;3.22;;;;;;;-2.97;100.00;96023.09;5036146;28;20093;-76
2023/04/04 04:00:48;;;;;;;6.72;3.17;;;;;;;-2.88;100.00;96025.63;5033798;28;20033;-76
2023/04/04 04:03:14;;;;;;;7.00;3.25;;;;;;;-2.88;100.00;96020.47;5039847;28;20134;-76
2023/04/04 04:05:40;;;;;;;8.15;3.10;;;;;;;-2.92;100.00;96030.31;5040575;28;20447;-76
2023/04/04 04:08:05;;;;;;;6.97;3.50;;;;;;;-2.94;100.00;96026.28;5040298;28;20052;-76
2023/04/04 04:10:32;;;;;;;8.32;3.42;;;;;;;-3.06;100.00;96024.13;5041581;28;20033;-76
2023/04/04 04:12:58;;;;;;;7.95;3.30;;;;;;;-3.07;100.00;96026.88;5040235;28;20037;-76
2023/04/04 04:15:23;;;;;;;7.07;3.20;;;;;;;-3.06;100.00;96029.28;5036365;28;20493;-76
2023/04/04 04:17:49;;;;;;;6.80;3.47;;;;;;;-3.14;100.00;96026.75;5036389;28;20041;-76
2023/04/04 04:20:15;;;;;;;6.68;3.28;;;;;;;-2.94;100.00;96026.28;5033465;28;20566;-76
2023/04/04 04:22:46;;;;;;;8.23;3.15;;;;;;;-2.94;100.00;96026.28;5047764;28;20041;-76
2023/04/04 04:25:13;;;;;;;6.38;3.20;;;;;;;-3.00;100.00;96033.75;5044791;28;20048;-76
2023/04/04 04:27:39;;;;;;;7.85;3.20;;;;;;;-3.08;100.00;96026.06;5040123;28;20036;-76
2023/04/04 04:30:06;;;;;;;9.52;3.80;;;;;;;-3.10;100.00;96038.31;5043847;28;20053;-76
2023/04/04 04:32:31;;;;;;;7.47;3.10;;;;;;;-3.14;100.00;96031.91;5049056;28;20049;-76
2023/04/04 04:34:57;;;;;;;8.02;3.30;;;;;;;-3.27;100.00;96039.38;5036617;28;20390;-76
2023/04/04 04:37:24;;;;;;;11.40;3.63;;;;;;;-3.06;100.00;96034.44;5035333;28;20045;-76
2023/04/04 04:39:51;;;;;;;7.25;3.15;;;;;;;-3.10;100.00;96038.31;5030867;28;20541;-76
2023/04/04 04:42:17;;;;;;;11.45;3.70;;;;;;;-3.04;100.00;96036.84;5033345;28;20500;-76
2023/04/04 04:44:43;;;;;;;10.13;3.38;;;;;;;-3.16;100.00;96039.81;5033526;28;20045;-76
2023/04/04 04:47:08;;;;;;;11.30;3.78;;;;;;;-3.10;100.00;96043.47;5032805;28;20393;-76
2023/04/04 04:49:34;;;;;;;11.65;3.42;;;;;;;-3.03;100.00;96043.56;5033402;28;20045;-74
2023/04/04 04:52:01;;;;;;;9.75;3.60;;;;;;;-2.98;100.00;96041.31;5036803;28;20643;-75
2023/04/04 04:54:27;;;;;;;12.50;3.67;;;;;;;-2.99;100.00;96039.69;5032535;28;20045;-77
2023/04/04 04:56:52;;;;;;;8.63;3.72;;;;;;;-3.04;100.00;96042.78;5048126;28;20034;-74
2023/04/04 04:59:18;;;;;;;9.10;3.53;;;;;;;-3.19;100.00;96045.28;5040429;28;20060;-76
2023/04/04 05:01:44;;;;;;;9.38;3.75;;;;;;;-3.25;100.00;96040.00;5035749;28;20385;-76
2023/04/04 05:04:09;;;;;;;9.57;3.95;;;;;;;-3.12;100.00;96050.53;5041742;28;20055;-75
2023/04/04 05:06:35;;;;;;;8.27;3.33;;;;;;;-3.30;100.00;96053.38;5038841;28;20048;-75
2023/04/04 05:09:01;;;;;;;12.80;3.20;;;;;;;-3.16;100.00;96049.28;5036046;28;20037;-75
2023/04/04 05:11:26;;;;;;;8.82;3.47;;;;;;;-3.28;100.00;96048.06;5042212;28;20044;-75
2023/04/04 05:13:52;;;;;;;14.48;4.00;;;;;;;-3.28;100.00;96060.94;5044707;28;20041;-74
2023/04/04 05:16:19;;;;;;;13.85;3.85;;;;;;;-3.34;100.00;96058.06;5040798;28;20412;-75
2023/04/04 05:18:45;;;;;;;10.02;3.33;;;;;;;-3.38;100.00;96054.22;5038404;28;20046;-77
2023/04/04 05:21:10;;;;;;;11.80;3.85;;;;;;;-3.31;100.00;96054.34;5044674;28;20049;-77
2023/04/04 05:23:36;;;;;;;6.13;3.33;;;;;;;-3.31;100.00;96050.00;5052094;28;20424;-76
2023/04/04 05:26:02;;;;;;;9.93;3.53;;;;;;;-3.31;100.00;96059.50;5031323;28;20037;-75
2023/04/04 05:28:27;;;;;;;8.98;3.30;;;;;;;-3.36;100.00;96064.34;5044038;28;20088;-75
2023/04/04 05:30:53;;;;;;;9.35;4.07;;;;;;;-3.44;100.00;96066.97;5044737;28;20033;-76
2023/04/04 05:33:18;;;;;;;14.85;4.35;;;;;;;-3.31;100.00;96056.94;5030648;28;20614;-75
2023/04/04 05:35:44;;;;;;;13.10;4.45;;;;;;;-3.35;100.00;96066.78;5039149;28;20045;-76
2023/04/04 05:38:10;;;;;;;8.55;3.97;;;;;;;-3.21;100.00;96067.03;5035210;28;20048;-77
2023/04/04 05:40:35;;;;;;;10.73;3.80;;;;;;;-3.25;100.00;96065.75;5036232;28;20417;-82
2023/04/04 05:43:03;;;;;;;11.65;3.70;;;;;;;-3.33;100.00;96064.81;5040993;28;20551;-79
2023/04/04 05:45:30;;;;;;;13.68;3.90;;;;;;;-3.19;100.00;96067.63;5036353;28;20072;-80
2023/04/04 05:47:56;;;;;;;7.85;3.60;;;;;;;-3.12;100.00;96076.28;5042745;28;20087;-78
2023/04/04 05:50:21;;;;;;;11.18;3.60;;;;;;;-3.15;100.00;96071.47;5039048;28;20045;-78
2023/04/04 05:52:47;;;;;;;10.23;3.88;;;;;;;-3.13;100.00;96066.97;5044008;28;20065;-78
2023/04/04 05:55:13;;;;;;;8.98;3.95;;;;;;;-3.10;100.00;96074.38;5035334;28;20052;-79
2023/04/04 05:57:47;;;;;;;12.13;4.13;;;;;;;-3.04;100.00;96068.53;5050817;28;20041;-80
2023/04/04 06:00:13;;;;;;;11.40;3.58;;;;;;;-3.00;100.00;96069.00;5046455;28;20041;-78
2023/04/04 06:02:39;;;;;;;8.52;3.45;;;;;;;-2.92;100.00;96065.56;5046535;28;20496;-78
2023/04/04 06:05:05;;;;;;;10.02;3.72;;;;;;;-2.96;100.00;96058.19;5045392;28;20053;-78
2023/04/04 06:07:30;;;;;;;7.72;3.60;;;;;;;-3.00;100.00;96056.13;5047351;28;20040;-78
2023/04/04 06:09:56;;;;;;;11.55;3.80;;;;;;;-2.87;100.00;96058.94;5051015;28;20048;-78
2023/04/04 06:12:21;;;;;;;12.38;4.00;;;;;;;-2.91;100.00;96062.81;5043821;28;20516;-78
2023/04/04 06:14:47;;;;;;;13.45;3.90;;;;;;;-2.76;100.00;96065.44;5041439;28;20524;-78
2023/04/04 06:17:12;;;;;;;9.70;4.28;;;;;;;-2.79;100.00;96065.78;5043000;28;20041;-78
2023/04/04 06:19:38;;;;;;;9.63;3.80;;;;;;;-2.72;100.00;96066.72;5042893;28;20428;-78
2023/04/04 06:22:03;;;;;;;7.43;3.65;;;;;;;-2.65;100.00;96066.84;5043443;28;20118;-78
2023/04/04 06:24:29;;;;;;;9.05;4.15;;;;;;;-2.64;100.00;96069.25;5045083;28;20127;-79
2023/04/04 06:26:55;;;;;;;9.93;4.20;;;;;;;-2.65;100.00;96067.63;5050249;28;20052;-79
2023/04/04 06:29:20;;;;;;;11.35;4.10;;;;;;;-2.62;100.00;96069.84;5049361;28;20033;-79
2023/04/04 06:31:46;;;;;;;17.58;4.70;;;;;;;-2.56;100.00;96063.22;5043042;28;20063;-78
2023/04/04 06:34:11;;;;;;;9.93;4.13;;;;;;;-2.51;100.00;96065.28;5047187;28;20036;-77
2023/04/04 06:36:37;;;;;;;10.23;3.97;;;;;;;-2.45;100.00;96054.28;5046649;28;20099;-78
2023/04/04 06:39:02;;;;;;;8.60;4.10;;;;;;;-2.39;100.00;96045.84;5040703;28;20064;-78
2023/04/04 06:41:28;;;;;;;10.32;4.00;;;;;;;-2.34;100.00;96059.03;5047758;28;20496;-78
2023/04/04 06:43:53;;;;;;;14.35;4.70;;;;;;;-2.28;100.00;96058.31;5052937;28;20041;-78
2023/04/04 06:46:19;;;;;;;8.25;4.28;;;;;;;-2.30;100.00;96049.97;5041748;28;20045;-78
2023/04/04 06:48:44;;;;;;;12.98;4.90;;;;;;;-2.24;100.00;96053.63;5038610;28;20067;-78
2023/04/04 06:51:11;;;;;;;9.02;4.55;;;;;;;-2.23;100.00;96046.69;5054342;28;20037;-78
2023/04/04 06:53:37;;;;;;;9.80;4.15;;;;;;;-2.04;100.00;96053.09;5047901;28;20051;-78
2023/04/04 06:56:04;;;;;;;17.90;5.00;;;;;;;-2.02;100.00;96046.78;5041477;28;20450;-78
2023/04/04 06:58:30;;;;;;;11.23;5.00;;;;;;;-1.87;100.00;96053.75;5052383;28;20048;-76
2023/04/04 07:00:58;;;;;;;9.25;4.25;;;;;;;-1.86;100.00;96055.34;5046222;28;20841;-77
2023/04/04 07:03:24;;;;;;;12.25;4.57;;;;;;;-1.83;100.00;96055.78;5050157;28;20503;-77
2023/04/04 07:05:50;;;;;;;10.30;4.30;;;;;;;-1.79;100.00;96040.75;5052123;28;20061;-79
2023/04/04 07:08:15;;;;;;;11.20;4.40;;;;;;;-1.72;100.00;96051.97;5043417;28;20033;-78
2023/04/04 07:10:41;;;;;;;9.45;4.20;;;;;;;-1.73;100.00;96039.25;5046033;28;20131;-77
2023/04/04 07:13:07;;;;;;;8.07;4.47;;;;;;;-1.64;100.00;96043.31;5051606;28;20044;-79
2023/04/04 07:15:32;;;;;;;9.10;4.43;;;;;;;-1.51;100.00;96047.84;5043738;28;20037;-76
2023/04/04 07:17:58;;;;;;;11.75;4.20;;;;;;;-1.43;100.00;96051.13;5044635;28;20045;-76
2023/04/04 07:20:24;;;;;;;7.25;3.90;;;;;;;-1.18;100.00;96047.44;5043000;28;20507;-76
2023/04/04 07:22:50;;;;;;;9.82;4.38;;;;;;;-1.04;100.00;96049.19;5048949;28;20053;-76
2023/04/04 07:25:15;;;;;;;9.68;3.83;;;;;;;-0.95;100.00;96053.28;5039923;28;20044;-75
2023/04/04 07:27:41;;;;;;;8.40;4.30;;;;;;;-1.06;100.00;96056.34;5039437;28;20393;-75
2023/04/04 07:30:07;;;;;;;10.15;4.40;;;;;;;-1.07;100.00;96049.56;5040819;28;20123;-76
2023/04/04 07:32:33;;;;;;;9.98;4.75;;;;;;;-0.88;100.00;96048.97;5036044;28;20040;-76
2023/04/04 07:34:58;;;;;;;11.63;4.47;;;;;;;-1.04;100.00;96049.19;5048608;28;20047;-75
2023/04/04 07:37:25;;;;;;;8.25;4.35;;;;;;;-1.05;100.00;96047.59;5040745;28;20059;-75
2023/04/04 07:39:51;;;;;;;13.02;4.50;;;;;;;-0.88;96.54;96048.97;5039630;28;20110;-75
2023/04/04 07:42:24;;;;;;;11.25;4.15;;;;;;;-0.98;91.95;96043.28;5037085;28;20493;-76
2023/04/04 07:44:51;;;;;;;9.45;4.47;;;;;;;-0.84;89.04;96048.59;5040429;28;20045;-76
2023/04/04 07:47:17;;;;;;;7.88;3.75;;;;;;;-0.91;89.43;96049.31;5040083;28;20094;-75
2023/04/04 07:49:43;;;;;;;11.45;4.43;;;;;;;-0.78;92.63;96051.22;5038207;28;20037;-76
2023/04/04 07:52:09;;;;;;;10.80;4.30;;;;;;;-0.66;91.58;96045.56;5039472;28;20048;-75
2023/04/04 07:54:35;;;;;;;9.75;4.63;;;;;;;-0.67;90.45;96049.97;5036764;28;20125;-76
2023/04/04 07:57:04;;;;;;;14.57;4.72;;;;;;;-0.64;85.11;96047.00;5044035;28;20041;-75
2023/04/04 07:59:31;;;;;;;8.38;4.40;;;;;;;-0.62;81.27;96032.09;5044444;28;20045;-74
2023/04/04 08:01:56;;;;;;;8.50;4.18;;;;;;;-0.39;86.39;96056.94;5045687;28;20111;-75
2023/04/04 08:04:22;;;;;;;12.88;4.30;;;;;;;-0.36;78.34;96041.88;5042382;28;20432;-74
2023/04/04 08:06:47;;;;;;;9.77;4.35;;;;;;;-0.35;74.77;96053.00;5041108;28;20042;-74
2023/04/04 08:09:13;;;;;;;13.82;4.68;;;;;;;-0.38;76.65;96048.22;5038598;28;20125;-74
2023/04/04 08:11:38;;;;;;;11.25;4.00;;;;;;;-0.25;76.31;96050.91;5040013;28;20087;-73
2023/04/04 08:14:04;;;;;;;10.18;4.18;;;;;;;-0.12;74.78;96046.81;5039459;28;20052;-73
2023/04/04 08:16:30;;;;;;;13.73;4.45;;;;;;;-0.22;77.11;96047.94;5041320;28;20037;-73
2023/04/04 08:18:55;;;;;;;10.30;4.60;;;;;;;-0.11;74.67;96048.44;5045709;28;20473;-73
2023/04/04 08:21:21;;;;;;;6.32;4.10;;;;;;;-0.04;76.39;96044.09;5048081;28;20096;-73
2023/04/04 08:23:47;;;;;;;12.10;5.28;;;;;;;-0.12;81.63;96055.38;5045833;28;20155;-73
2023/04/04 08:26:12;;;;;;;9.00;4.28;;;;;;;-0.18;77.91;96049.16;5046406;28;20101;-73
2023/04/04 08:28:38;;;;;;;11.10;4.55;;;;;;;-0.04;77.21;96054.44;5040152;28;20503;-73
2023/04/04 08:31:04;;;;;;;9.00;4.40;;;;;;;0.10;77.70;96048.38;5039351;28;20044;-73
2023/04/04 08:33:30;;;;;;;12.75;5.22;;;;;;;0.28;80.94;96052.25;5041346;28;20049;-72
2023/04/04 08:35:57;;;;;;;9.73;4.40;;;;;;;0.07;76.34;96051.34;5041368;28;20048;-73
2023/04/04 08:38:23;;;;;;;8.75;4.45;;;;;;;0.08;75.48;96052.91;5044376;28;20044;-75
2023/04/04 08:40:48;;;;;;;12.05;4.60;;;;;;;0.25;76.06;96047.47;5046842;28;20421;-73
2023/04/04 08:43:15;;;;;;;6.57;4.00;;;;;;;0.46;75.58;96049.97;5044797;28;20186;-73
2023/04/04 08:45:43;;;;;;;9.68;3.67;;;;;;;0.56;68.97;96053.97;5045167;28;20076;-73
2023/04/04 08:48:16;;;;;;;12.32;4.03;;;;;;;0.45;70.17;96058.72;5036838;28;20037;-73
2023/04/04 08:50:42;;;;;;;11.95;4.50;;;;;;;0.40;71.44;96061.06;5043157;28;20033;-73
2023/04/04 08:53:09;;;;;;;7.30;4.45;;;;;;;0.54;69.45;96055.97;5040173;28;20037;-73
2023/04/04 08:55:35;;;;;;;8.32;3.95;;;;;;;0.64;71.61;96061.59;5039513;28;20065;-72
2023/04/04 08:58:01;;;;;;;7.90;4.30;;;;;;;0.46;66.93;96060.31;5043031;28;20382;-72
2023/04/04 09:00:26;;;;;;;8.00;4.10;;;;;;;0.55;66.45;96057.53;5049163;28;20049;-72
2023/04/04 09:03:09;;;;;;;10.95;3.95;;;;;;;0.47;64.09;96056.72;5045055;28;20098;-73
2023/04/04 09:05:35;;;;;;;13.25;4.78;;;;;;;0.77;65.26;96064.22;5043640;28;20045;-72
2023/04/04 09:08:03;;;;;;;9.52;4.18;;;;;;;0.74;63.35;96056.84;5038757;28;20582;-72
2023/04/04 09:10:29;;;;;;;10.18;4.22;;;;;;;0.60;62.80;96057.78;5034209;28;20038;-72
2023/04/04 09:12:55;;;;;;;9.90;4.72;;;;;;;0.72;62.77;96061.44;5039170;28;20777;-72
2023/04/04 09:15:21;;;;;;;8.18;4.53;;;;;;;0.76;60.63;96054.88;5041540;28;20041;-72
2023/04/04 09:17:47;;;;;;;9.32;4.82;;;;;;;0.46;61.58;96052.53;5049039;28;20049;-72
2023/04/04 09:20:36;;;;;;;8.95;4.35;;;;;;;0.69;63.80;96054.84;5037577;28;20424;-72
2023/04/04 09:23:10;;;;;;;9.18;4.47;;;;;;;0.77;61.97;96053.84;5043358;28;20103;-72
2023/04/04 09:25:36;;;;;;;8.38;3.92;;;;;;;1.08;61.27;96057.75;5034604;28;20041;-72
2023/04/04 09:28:04;;;;;;;9.75;4.50;;;;;;;1.05;61.71;96058.16;5032778;28;20034;-72
2023/04/04 09:30:31;;;;;;;12.13;4.63;;;;;;;1.23;62.39;96064.56;5039470;28;20045;-72
2023/04/04 09:33:00;;;;;;;9.73;4.35;;;;;;;1.64;63.50;96055.81;5038399;28;20038;-72
2023/04/04 09:35:26;;;;;;;9.15;4.55;;;;;;;1.21;59.54;96065.56;5037675;28;20480;-72
2023/04/04 09:37:52;;;;;;;9.13;4.50;;;;;;;1.15;59.70;96068.94;5033353;28;20079;-72
2023/04/04 09:40:18;;;;;;;18.45;5.40;;;;;;;1.34;58.47;96056.22;5038272;28;20480;-73
2023/04/04 09:42:44;;;;;;;14.43;4.75;;;;;;;1.49;60.22;96072.38;5044759;28;20033;-73
2023/04/04 09:45:10;;;;;;;11.35;4.60;;;;;;;1.30;59.38;96060.97;5034184;28;20476;-73
2023/04/04 09:47:40;;;;;;;11.80;5.00;;;;;;;1.61;62.25;96061.41;5034077;28;20147;-73
2023/04/04 09:50:06;;;;;;;9.00;4.68;;;;;;;1.81;56.89;96071.81;5041101;28;20045;-74
2023/04/04 09:52:34;;;;;;;11.27;5.22;;;;;;;1.89;57.42;96067.22;5047197;28;20404;-73
2023/04/04 09:55:01;;;;;;;8.48;4.78;;;;;;;1.76;56.42;96064.63;5041631;28;20416;-73
2023/04/04 09:57:33;;;;;;;13.85;4.95;;;;;;;1.88;57.62;96062.22;5047023;28;20037;-73
2023/04/04 10:00:00;;;;;;;13.45;4.82;;;;;;;2.01;57.11;96058.81;5035169;28;20493;-74
2023/04/04 10:02:29;;;;;;;10.68;5.10;;;;;;;1.60;54.88;96065.03;5046024;28;20045;-73
2023/04/04 10:04:56;;;;;;;11.20;5.30;;;;;;;1.94;56.53;96071.00;5039179;28;20128;-74
2023/04/04 10:07:31;;;;;;;12.65;5.13;;;;;;;1.76;56.89;96069.81;5047241;28;20071;-74
2023/04/04 10:10:01;;;;;;;12.40;5.25;;;;;;;1.89;58.38;96063.81;5037256;28;20037;-74
2023/04/04 10:12:27;;;;;;;11.75;5.22;;;;;;;1.96;55.42;96058.63;5040555;28;20053;-74
2023/04/04 10:14:59;;;;;;;10.73;5.38;;;;;;;2.47;53.56;96055.34;5045814;28;20041;-74
2023/04/04 10:17:37;;;;;;;9.20;4.93;;;;;;;2.29;55.01;96057.78;5039680;28;20048;-73
2023/04/04 10:20:05;;;;;;;10.68;5.22;;;;;;;2.32;55.37;96067.78;5044208;28;20048;-73
2023/04/04 10:22:35;;;;;;;10.27;4.28;;;;;;;2.60;53.54;96060.50;5037264;28;20065;-74
2023/04/04 10:25:02;;;;;;;13.23;5.05;;;;;;;2.61;53.97;96066.50;5039215;28;20042;-74
2023/04/04 10:27:28;;;;;;;11.77;5.30;;;;;;;2.47;53.45;96063.16;5036367;28;20041;-74
2023/04/04 10:29:53;;;;;;;9.10;4.95;;;;;;;2.42;53.42;96062.94;5039956;28;20087;-74
2023/04/04 10:32:32;;;;;;;13.63;6.15;;;;;;;2.68;54.61;96067.25;5039071;28;20037;-74
2023/04/04 10:35:11;;;;;;;11.93;5.50;;;;;;;2.08;53.40;96062.19;5042280;28;20735;-74
2023/04/04 10:37:43;;;;;;;10.73;5.35;;;;;;;2.15;56.07;96063.00;5048553;28;20056;-74
2023/04/04 10:40:18;;;;;;;12.85;5.05;;;;;;;2.08;55.50;96064.81;5045032;28;20043;-74
2023/04/04 10:42:46;;;;;;;10.52;5.25;;;;;;;2.30;53.99;96057.59;5033258;28;20042;-73
2023/04/04 10:45:13;;;;;;;12.40;5.43;;;;;;;2.57;53.25;96066.13;5040766;28;20044;-74
2023/04/04 10:47:40;;;;;;;9.30;5.68;;;;;;;2.82;53.70;96062.81;5059482;28;20052;-74
2023/04/04 10:50:09;;;;;;;11.35;5.38;;;;;;;3.14;53.73;96070.69;5043103;28;20045;-74
2023/04/04 10:52:37;;;;;;;11.57;5.15;;;;;;;3.77;50.34;96064.66;5041475;28;20128;-74
2023/04/04 10:55:08;;;;;;;14.90;5.68;;;;;;;4.17;47.35;96058.34;5038172;28;20068;-74
2023/04/04 10:57:40;;;;;;;10.05;5.30;;;;;;;5.18;47.45;96068.44;5045541;28;20041;-74
2023/04/04 11:00:11;;;;;;;15.88;5.45;;;;;;;5.70;45.56;96060.88;5036708;28;20616;-74
2023/04/04 11:02:56;;;;;;;15.23;5.38;;;;;;;6.95;40.93;96044.22;5038200;28;20044;-74
2023/04/04 11:05:40;;;;;;;9.13;5.07;;;;;;;5.26;42.34;96055.09;5036491;28;20033;-72
2023/04/04 11:08:12;;;;;;;12.75;5.68;;;;;;;6.58;43.12;96044.56;5044927;28;20394;-74
2023/04/04 11:10:41;;;;;;;12.15;5.75;;;;;;;6.16;42.61;96047.31;5030767;28;20041;-72
2023/04/04 11:13:21;;;;;;;10.57;5.28;;;;;;;6.10;43.05;96035.16;5041757;28;20041;-74
2023/04/04 11:15:56;;;;;;;16.40;6.40;;;;;;;7.93;40.18;96043.25;5048570;28;20041;-74
2023/04/04 11:18:42;;;;;;;16.40;6.10;;;;;;;8.03;39.67;96038.19;5038718;28;20041;-72
2023/04/04 11:21:10;;;;;;;9.93;5.50;;;;;;;8.02;39.87;96031.34;5035674;28;20500;-72
2023/04/04 11:23:48;;;;;;;15.00;6.00;;;;;;;8.08;40.75;96030.38;5033387;28;20052;-73
2023/04/04 11:26:34;;;;;;;14.07;6.22;;;;;;;7.37;39.59;96036.09;5039175;28;20120;-73